Time;durP1;ratioP1;P1;durP2;ratioP2;P2;SDS_P1;SDS_P2;PMS_P1;PMS_P2;Temp;Humidity;BMP_temperature;BMP_pressure;BME280_temperature;BME280_humidity;BME280_pressure;Samples;Min_cycle;Max_cycle;Signal;HPM_P1;HPM_P2
2023/12/10 00:01:49;;;;;;;5.32;4.22;;;;;;;;;;5026994;28;20104;-62
2023/12/10 00:04:14;;;;;;;5.47;4.63;;;;;;;;;;5026767;28;20045;-64
2023/12/10 00:06:39;;;;;;;5.10;4.22;;;;;;;;;;5026687;28;20041;-63
2023/12/10 00:09:05;;;;;;;5.15;4.20;;;;;;;;;;5009093;28;20423;-64
2023/12/10 00:11:30;;;;;;;5.35;4.38;;;;;;;;;;5022841;28;20502;-62
2023/12/10 00:13:55;;;;;;;5.57;4.40;;;;;;;;;;5026840;28;20029;-62
2023/12/10 00:16:21;;;;;;;5.63;4.43;;;;;;;;;;5026866;28;20037;-62
2023/12/10 00:18:46;;;;;;;5.28;4.40;;;;;;;;;;5026896;28;20074;-63
2023/12/10 00:21:12;;;;;;;4.85;4.20;;;;;;;;;;5027028;28;20590;-63
2023/12/10 00:23:37;;;;;;;5.68;4.53;;;;;;;;;;5026728;28;20068;-62
2023/12/10 00:26:03;;;;;;;5.15;4.30;;;;;;;;;;5026877;28;20042;-62
2023/12/10 00:28:28;;;;;;;5.38;4.32;;;;;;;;;;5025865;28;20081;-62
2023/12/10 00:30:53;;;;;;;5.97;5.00;;;;;;;;;;5026931;28;20754;-62
2023/12/10 00:33:19;;;;;;;4.28;3.85;;;;;;;;;;4991657;28;20042;-62
2023/12/10 00:35:44;;;;;;;5.20;4.18;;;;;;;;;;5026906;28;20038;-65
2023/12/10 00:38:10;;;;;;;4.35;3.92;;;;;;;;;;5026213;28;20519;-63
2023/12/10 00:40:35;;;;;;;6.00;4.85;;;;;;;;;;5026479;28;20040;-64
2023/12/10 00:43:00;;;;;;;5.15;4.40;;;;;;;;;;5025768;28;20037;-63
2023/12/10 00:45:26;;;;;;;6.03;4.57;;;;;;;;;;5025644;28;20054;-61
2023/12/10 00:47:51;;;;;;;5.93;4.55;;;;;;;;;;5006573;28;20523;-62
2023/12/10 00:50:16;;;;;;;6.28;4.57;;;;;;;;;;5025783;28;20080;-63
2023/12/10 00:52:41;;;;;;;5.35;4.43;;;;;;;;;;5006953;28;20041;-63
2023/12/10 00:55:07;;;;;;;5.70;4.40;;;;;;;;;;5006851;28;20376;-62
2023/12/10 00:57:34;;;;;;;5.20;4.28;;;;;;;;;;5026685;28;20057;-62
2023/12/10 00:59:59;;;;;;;6.28;4.70;;;;;;;;;;5006534;28;20041;-63
2023/12/10 01:02:25;;;;;;;5.35;4.10;;;;;;;;;;5025459;28;20454;-62
2023/12/10 01:04:51;;;;;;;5.40;4.45;;;;;;;;;;5024705;28;20042;-62
2023/12/10 01:07:17;;;;;;;5.18;4.20;;;;;;;;;;5026611;28;20049;-62
2023/12/10 01:09:42;;;;;;;6.07;4.30;;;;;;;;;;4991342;28;20725;-62
2023/12/10 01:12:07;;;;;;;5.80;4.70;;;;;;;;;;5008313;28;20116;-62
2023/12/10 01:14:33;;;;;;;5.45;4.13;;;;;;;;;;5025197;28;20064;-62
2023/12/10 01:16:59;;;;;;;5.55;4.30;;;;;;;;;;5026331;28;20420;-64
2023/12/10 01:19:24;;;;;;;6.40;4.55;;;;;;;;;;5018227;28;20034;-61
2023/12/10 01:21:50;;;;;;;5.68;4.38;;;;;;;;;;5026205;28;20087;-62
2023/12/10 01:24:18;;;;;;;5.22;4.28;;;;;;;;;;5026629;28;20442;-62
2023/12/10 01:26:44;;;;;;;4.70;4.20;;;;;;;;;;5008379;28;20069;-61
2023/12/10 01:29:09;;;;;;;5.20;4.28;;;;;;;;;;5007517;28;20552;-63
2023/12/10 01:31:35;;;;;;;6.18;4.63;;;;;;;;;;5026576;28;20021;-62
2023/12/10 01:34:00;;;;;;;5.22;4.45;;;;;;;;;;5017849;28;20469;-61
2023/12/10 01:36:26;;;;;;;6.28;4.07;;;;;;;;;;5001422;28;20118;-61
2023/12/10 01:38:52;;;;;;;5.70;4.50;;;;;;;;;;4996961;28;20068;-61
2023/12/10 01:41:18;;;;;;;5.18;4.15;;;;;;;;;;5017717;28;20794;-63
2023/12/10 01:43:43;;;;;;;5.57;4.40;;;;;;;;;;5017094;28;20240;-62
2023/12/10 01:46:09;;;;;;;5.18;3.90;;;;;;;;;;4991437;28;20105;-62
2023/12/10 01:48:34;;;;;;;5.55;4.60;;;;;;;;;;5024957;28;20037;-62
2023/12/10 01:50:59;;;;;;;5.85;4.70;;;;;;;;;;5006955;28;20410;-62
2023/12/10 01:53:25;;;;;;;5.82;4.10;;;;;;;;;;5023397;28;20052;-62
2023/12/10 01:55:50;;;;;;;4.78;4.07;;;;;;;;;;5026002;28;20487;-60
2023/12/10 01:58:15;;;;;;;5.45;4.50;;;;;;;;;;5024831;28;20017;-61
2023/12/10 02:00:40;;;;;;;4.88;4.03;;;;;;;;;;5023517;28;20029;-61
2023/12/10 02:03:06;;;;;;;4.82;4.15;;;;;;;;;;4987543;28;20105;-60
2023/12/10 02:05:31;;;;;;;5.22;4.53;;;;;;;;;;5022243;28;20107;-60
2023/12/10 02:07:57;;;;;;;5.68;4.50;;;;;;;;;;5023862;28;20029;-61
2023/12/10 02:10:22;;;;;;;5.75;4.88;;;;;;;;;;5023527;28;20029;-61
2023/12/10 02:12:47;;;;;;;5.80;4.57;;;;;;;;;;5024682;28;20021;-62
2023/12/10 02:15:16;;;;;;;6.32;4.57;;;;;;;;;;5007345;28;20033;-61
2023/12/10 02:17:41;;;;;;;5.55;4.60;;;;;;;;;;5023337;28;20448;-60
2023/12/10 02:20:09;;;;;;;5.95;4.60;;;;;;;;;;5024440;28;20018;-61
2023/12/10 02:22:34;;;;;;;5.25;4.07;;;;;;;;;;5007556;28;20029;-62
2023/12/10 02:25:01;;;;;;;5.35;4.47;;;;;;;;;;5007136;28;20510;-61
2023/12/10 02:27:26;;;;;;;5.03;4.25;;;;;;;;;;5020311;28;20511;-61
2023/12/10 02:29:52;;;;;;;5.00;4.20;;;;;;;;;;5023818;28;20091;-61
2023/12/10 02:32:17;;;;;;;5.80;4.60;;;;;;;;;;5023389;28;20042;-62
2023/12/10 02:34:43;;;;;;;5.28;4.45;;;;;;;;;;5022920;28;20041;-60
2023/12/10 02:37:08;;;;;;;5.20;4.53;;;;;;;;;;5025120;28;20112;-61
2023/12/10 02:39:33;;;;;;;5.70;4.68;;;;;;;;;;5023981;28;20416;-60
2023/12/10 02:41:59;;;;;;;5.10;4.60;;;;;;;;;;5006809;28;20045;-61
2023/12/10 02:44:24;;;;;;;4.72;3.92;;;;;;;;;;5022745;28;20033;-61
2023/12/10 02:46:49;;;;;;;5.32;4.45;;;;;;;;;;5024166;28;20037;-62
2023/12/10 02:49:15;;;;;;;4.93;4.43;;;;;;;;;;5024510;28;20049;-62
2023/12/10 02:51:40;;;;;;;5.75;4.60;;;;;;;;;;5024765;28;20038;-63
2023/12/10 02:54:05;;;;;;;5.55;4.50;;;;;;;;;;5023925;28;20725;-61
2023/12/10 02:56:31;;;;;;;4.60;4.15;;;;;;;;;;5025321;28;20054;-60
2023/12/10 02:58:56;;;;;;;5.43;4.80;;;;;;;;;;5024337;28;20136;-60
2023/12/10 03:01:21;;;;;;;5.43;4.32;;;;;;;;;;5022689;28;20044;-62
2023/12/10 03:03:47;;;;;;;6.00;4.93;;;;;;;;;;5006059;28;20088;-61
2023/12/10 03:06:12;;;;;;;5.78;4.88;;;;;;;;;;5024444;28;20049;-61
2023/12/10 03:08:37;;;;;;;5.55;4.55;;;;;;;;;;5023162;28;20127;-61
2023/12/10 03:11:03;;;;;;;4.75;3.95;;;;;;;;;;5005071;28;20064;-61
2023/12/10 03:13:28;;;;;;;4.85;4.35;;;;;;;;;;5023737;28;20114;-60
2023/12/10 03:15:53;;;;;;;4.88;4.38;;;;;;;;;;5024675;28;20120;-62
2023/12/10 03:18:19;;;;;;;5.88;4.50;;;;;;;;;;5021796;28;20029;-61
2023/12/10 03:20:44;;;;;;;5.95;4.65;;;;;;;;;;5006101;28;20037;-62
2023/12/10 03:23:10;;;;;;;5.20;4.57;;;;;;;;;;5024054;28;20450;-61
2023/12/10 03:25:35;;;;;;;4.72;4.22;;;;;;;;;;5024119;28;20037;-63
2023/12/10 03:28:00;;;;;;;5.13;4.22;;;;;;;;;;5023957;28;20049;-61
2023/12/10 03:30:26;;;;;;;5.10;4.25;;;;;;;;;;5024802;28;20438;-61
2023/12/10 03:32:51;;;;;;;5.70;4.63;;;;;;;;;;5023028;28;20069;-60
2023/12/10 03:35:16;;;;;;;5.70;4.53;;;;;;;;;;5022246;28;20803;-60
2023/12/10 03:37:41;;;;;;;5.53;4.65;;;;;;;;;;5024427;28;20112;-61
2023/12/10 03:40:07;;;;;;;5.25;4.32;;;;;;;;;;5023693;28;20037;-61
2023/12/10 03:42:33;;;;;;;5.50;4.65;;;;;;;;;;5023651;28;20135;-60
2023/12/10 03:44:58;;;;;;;5.60;4.53;;;;;;;;;;5005085;28;20045;-62
2023/12/10 03:47:23;;;;;;;7.57;4.35;;;;;;;;;;5013791;28;20387;-61
2023/12/10 03:49:49;;;;;;;5.55;4.50;;;;;;;;;;5023922;28;20030;-60
2023/12/10 03:52:14;;;;;;;5.40;4.50;;;;;;;;;;5023645;28;20627;-61
2023/12/10 03:54:39;;;;;;;5.63;4.88;;;;;;;;;;5023807;28;20689;-61
2023/12/10 03:57:05;;;;;;;5.65;4.38;;;;;;;;;;5007194;28;20061;-61
2023/12/10 03:59:30;;;;;;;5.30;4.40;;;;;;;;;;5025086;28;20503;-61
2023/12/10 04:01:56;;;;;;;5.00;4.10;;;;;;;;;;5024295;28;20037;-60
2023/12/10 04:04:21;;;;;;;5.05;4.40;;;;;;;;;;5023970;28;20049;-62
2023/12/10 04:06:47;;;;;;;5.13;4.10;;;;;;;;;;5018394;28;20514;-61
2023/12/10 04:09:12;;;;;;;4.80;4.30;;;;;;;;;;5027406;28;20053;-61
2023/12/10 04:11:37;;;;;;;5.28;4.38;;;;;;;;;;5024193;28;20043;-61
2023/12/10 04:14:03;;;;;;;5.85;4.40;;;;;;;;;;5004990;28;20510;-60
2023/12/10 04:16:31;;;;;;;4.88;4.30;;;;;;;;;;5024346;28;20033;-61
2023/12/10 04:18:56;;;;;;;4.82;4.25;;;;;;;;;;5023941;28;20040;-61
2023/12/10 04:21:22;;;;;;;4.85;4.25;;;;;;;;;;5022589;28;20499;-61
2023/12/10 04:23:47;;;;;;;5.30;4.35;;;;;;;;;;5023696;28;20668;-61
2023/12/10 04:26:13;;;;;;;5.03;4.13;;;;;;;;;;5022654;28;20088;-61
2023/12/10 04:28:39;;;;;;;4.80;4.30;;;;;;;;;;5023002;28;20460;-61
2023/12/10 04:31:04;;;;;;;4.97;4.07;;;;;;;;;;5025947;28;20048;-61
2023/12/10 04:33:30;;;;;;;5.03;4.20;;;;;;;;;;5027365;28;20045;-62
2023/12/10 04:35:55;;;;;;;5.65;4.38;;;;;;;;;;5008578;28;20033;-62
2023/12/10 04:38:21;;;;;;;5.88;4.60;;;;;;;;;;5027367;28;20397;-62
2023/12/10 04:40:46;;;;;;;4.60;3.70;;;;;;;;;;5008561;28;20039;-61
2023/12/10 04:43:11;;;;;;;5.28;4.35;;;;;;;;;;5025734;28;20037;-61
2023/12/10 04:45:37;;;;;;;5.22;4.10;;;;;;;;;;5026230;28;20848;-61
2023/12/10 04:48:02;;;;;;;5.07;4.43;;;;;;;;;;5027133;28;20057;-61
2023/12/10 04:50:27;;;;;;;4.90;4.35;;;;;;;;;;5040689;28;20033;-61
2023/12/10 04:52:53;;;;;;;5.60;4.35;;;;;;;;;;5026135;28;20029;-60
2023/12/10 04:55:18;;;;;;;4.80;4.20;;;;;;;;;;5027210;28;20060;-62
2023/12/10 04:57:43;;;;;;;4.75;4.00;;;;;;;;;;5027780;28;20125;-60
2023/12/10 05:00:09;;;;;;;5.20;4.50;;;;;;;;;;5008025;28;20052;-61
2023/12/10 05:02:34;;;;;;;5.10;4.38;;;;;;;;;;5026397;28;20084;-62
2023/12/10 05:04:59;;;;;;;5.13;4.13;;;;;;;;;;5025714;28;20503;-62
2023/12/10 05:07:25;;;;;;;5.05;4.13;;;;;;;;;;5002487;28;20481;-61
2023/12/10 05:09:50;;;;;;;4.60;4.10;;;;;;;;;;5020568;28;20578;-61
2023/12/10 05:12:15;;;;;;;4.75;4.00;;;;;;;;;;5026466;28;20040;-61
2023/12/10 05:14:41;;;;;;;4.88;4.03;;;;;;;;;;5007760;28;21155;-62
2023/12/10 05:17:06;;;;;;;5.90;4.47;;;;;;;;;;5024734;28;20041;-62
2023/12/10 05:19:31;;;;;;;5.20;4.40;;;;;;;;;;5018077;28;20050;-60
2023/12/10 05:21:57;;;;;;;4.82;3.83;;;;;;;;;;4999418;28;20133;-60
2023/12/10 05:24:22;;;;;;;4.60;4.00;;;;;;;;;;4997994;28;20048;-58
2023/12/10 05:26:47;;;;;;;4.82;3.95;;;;;;;;;;5015307;28;20041;-58
2023/12/10 05:29:12;;;;;;;5.47;4.32;;;;;;;;;;5018215;28;20656;-60
2023/12/10 05:31:38;;;;;;;5.40;4.40;;;;;;;;;;5016280;28;20068;-61
2023/12/10 05:34:04;;;;;;;5.18;4.20;;;;;;;;;;5017327;28;20059;-59
2023/12/10 05:36:29;;;;;;;4.60;3.85;;;;;;;;;;5017960;28;20041;-59
2023/12/10 05:38:54;;;;;;;5.45;4.40;;;;;;;;;;5000344;28;20053;-59
2023/12/10 05:41:19;;;;;;;5.68;4.40;;;;;;;;;;4999099;28;20626;-60
2023/12/10 05:43:45;;;;;;;5.15;4.47;;;;;;;;;;5017639;28;20040;-60
2023/12/10 05:46:10;;;;;;;4.20;3.58;;;;;;;;;;5000356;28;20109;-60
2023/12/10 05:48:35;;;;;;;4.88;4.18;;;;;;;;;;5017564;28;20053;-59
2023/12/10 05:51:03;;;;;;;5.20;3.95;;;;;;;;;;5016952;28;20144;-60
2023/12/10 05:53:28;;;;;;;4.53;3.90;;;;;;;;;;5016022;28;20037;-61
2023/12/10 05:55:53;;;;;;;5.28;4.25;;;;;;;;;;5017287;28;20049;-60
2023/12/10 05:58:19;;;;;;;5.20;4.25;;;;;;;;;;5016935;28;20049;-61
2023/12/10 06:00:44;;;;;;;4.97;4.13;;;;;;;;;;5017015;28;20041;-60
2023/12/10 06:03:10;;;;;;;4.93;4.30;;;;;;;;;;5016725;28;20048;-60
2023/12/10 06:05:35;;;;;;;6.43;4.72;;;;;;;;;;5017062;28;20482;-60
2023/12/10 06:08:00;;;;;;;5.53;4.55;;;;;;;;;;5017850;28;20467;-60
2023/12/10 06:10:26;;;;;;;5.38;4.38;;;;;;;;;;5000184;28;20032;-60
2023/12/10 06:12:51;;;;;;;4.95;3.92;;;;;;;;;;5018752;28;20036;-60
2023/12/10 06:15:16;;;;;;;5.13;4.30;;;;;;;;;;4982943;28;20039;-60
2023/12/10 06:17:42;;;;;;;4.63;3.85;;;;;;;;;;5016783;28;20499;-60
2023/12/10 06:20:08;;;;;;;4.20;3.80;;;;;;;;;;5016496;28;20040;-61
2023/12/10 06:22:33;;;;;;;4.93;4.03;;;;;;;;;;5016752;28;20424;-61
2023/12/10 06:24:58;;;;;;;4.78;4.10;;;;;;;;;;5016316;28;20037;-61
2023/12/10 06:27:24;;;;;;;5.15;3.97;;;;;;;;;;5015796;28;20043;-60
2023/12/10 06:29:49;;;;;;;4.25;3.42;;;;;;;;;;4994657;28;20048;-60
2023/12/10 06:32:15;;;;;;;4.90;3.88;;;;;;;;;;4995213;28;20048;-61
2023/12/10 06:34:40;;;;;;;4.95;3.72;;;;;;;;;;5015927;28;20060;-60
2023/12/10 06:37:06;;;;;;;4.43;4.03;;;;;;;;;;5017184;28;20069;-60
2023/12/10 06:39:31;;;;;;;4.65;3.92;;;;;;;;;;5018663;28;20503;-60
2023/12/10 06:41:56;;;;;;;4.65;3.80;;;;;;;;;;5017158;28;20714;-60
2023/12/10 06:44:22;;;;;;;5.00;3.95;;;;;;;;;;4998561;28;20041;-61
2023/12/10 06:46:48;;;;;;;4.57;3.83;;;;;;;;;;5016328;28;20030;-61
2023/12/10 06:49:13;;;;;;;5.35;4.00;;;;;;;;;;4995954;28;20080;-60
2023/12/10 06:51:39;;;;;;;4.70;3.80;;;;;;;;;;5011616;28;20060;-60
2023/12/10 06:54:04;;;;;;;4.75;3.60;;;;;;;;;;5015599;28;20068;-60
2023/12/10 06:56:29;;;;;;;5.22;4.03;;;;;;;;;;5016932;28;20034;-60
2023/12/10 06:58:55;;;;;;;4.78;3.97;;;;;;;;;;5014876;28;20533;-60
2023/12/10 07:01:20;;;;;;;5.07;3.90;;;;;;;;;;5016623;28;20048;-60
2023/12/10 07:03:45;;;;;;;4.25;3.83;;;;;;;;;;5011114;28;20132;-61
2023/12/10 07:06:11;;;;;;;5.25;4.20;;;;;;;;;;5013710;28;20045;-62
2023/12/10 07:08:36;;;;;;;5.05;3.95;;;;;;;;;;4998087;28;20204;-60
2023/12/10 07:11:04;;;;;;;4.70;3.80;;;;;;;;;;5015807;28;20048;-61
2023/12/10 07:13:30;;;;;;;4.88;4.18;;;;;;;;;;5015068;28;20167;-61
2023/12/10 07:15:55;;;;;;;4.68;4.07;;;;;;;;;;5016600;28;20042;-60
2023/12/10 07:18:20;;;;;;;4.20;3.58;;;;;;;;;;5016779;28;20095;-61
2023/12/10 07:20:45;;;;;;;5.15;4.00;;;;;;;;;;5016417;28;20053;-61
2023/12/10 07:23:11;;;;;;;5.07;4.00;;;;;;;;;;5016888;28;20164;-61
2023/12/10 07:25:36;;;;;;;4.80;3.63;;;;;;;;;;5016612;28;20427;-60
2023/12/10 07:28:02;;;;;;;4.68;3.53;;;;;;;;;;5016591;28;20673;-60
2023/12/10 07:30:28;;;;;;;4.60;3.97;;;;;;;;;;5016495;28;20042;-60
2023/12/10 07:32:56;;;;;;;5.43;4.05;;;;;;;;;;4995439;28;20033;-60
2023/12/10 07:35:22;;;;;;;5.35;3.85;;;;;;;;;;5015724;28;20065;-60
2023/12/10 07:37:47;;;;;;;4.90;3.80;;;;;;;;;;5016922;28;20092;-60
2023/12/10 07:40:12;;;;;;;5.30;4.03;;;;;;;;;;5017149;28;20188;-59
2023/12/10 07:42:38;;;;;;;5.15;4.18;;;;;;;;;;5015821;28;20451;-60
2023/12/10 07:45:04;;;;;;;4.07;3.60;;;;;;;;;;5016555;28;20050;-59
2023/12/10 07:47:29;;;;;;;5.65;3.95;;;;;;;;;;5016139;28;20043;-59
2023/12/10 07:49:55;;;;;;;4.95;4.15;;;;;;;;;;4996287;28;20045;-60
2023/12/10 07:52:20;;;;;;;4.70;3.80;;;;;;;;;;5014574;28;20046;-59
2023/12/10 07:54:45;;;;;;;4.75;3.70;;;;;;;;;;5016040;28;20050;-60
2023/12/10 07:57:11;;;;;;;4.55;3.75;;;;;;;;;;5016172;28;20049;-60
2023/12/10 07:59:36;;;;;;;4.65;3.75;;;;;;;;;;5016114;28;20049;-60
2023/12/10 08:02:01;;;;;;;5.03;3.90;;;;;;;;;;5015185;28;20030;-59
2023/12/10 08:04:27;;;;;;;4.85;3.95;;;;;;;;;;5015706;28;20033;-57
2023/12/10 08:06:52;;;;;;;5.30;4.10;;;;;;;;;;5003401;28;20049;-59
2023/12/10 08:09:17;;;;;;;5.90;3.92;;;;;;;;;;5021334;28;20084;-58
2023/12/10 08:11:43;;;;;;;4.90;3.85;;;;;;;;;;4996079;28;20033;-59
2023/12/10 08:14:09;;;;;;;4.13;3.70;;;;;;;;;;4999327;28;20121;-60
2023/12/10 08:16:34;;;;;;;4.32;3.72;;;;;;;;;;5018328;28;20152;-61
2023/12/10 08:19:00;;;;;;;5.22;3.95;;;;;;;;;;5017031;28;20132;-60
2023/12/10 08:21:25;;;;;;;5.93;4.03;;;;;;;;;;5016562;28;20160;-60
2023/12/10 08:23:51;;;;;;;5.15;4.53;;;;;;;;;;5017265;28;20037;-60
2023/12/10 08:26:16;;;;;;;4.80;3.90;;;;;;;;;;5017852;28;20029;-60
2023/12/10 08:28:42;;;;;;;4.53;3.70;;;;;;;;;;5018801;28;21076;-58
2023/12/10 08:31:07;;;;;;;5.25;4.00;;;;;;;;;;5019962;28;20050;-59
2023/12/10 08:33:32;;;;;;;5.13;3.78;;;;;;;;;;5018244;28;20043;-60
2023/12/10 08:35:58;;;;;;;5.13;3.78;;;;;;;;;;5018357;28;20231;-59
2023/12/10 08:38:23;;;;;;;5.70;4.25;;;;;;;;;;5019392;28;21612;-58
2023/12/10 08:40:49;;;;;;;6.22;3.75;;;;;;;;;;5000859;28;20035;-59
2023/12/10 08:43:14;;;;;;;5.63;4.45;;;;;;;;;;4995116;28;20173;-61
2023/12/10 08:45:40;;;;;;;5.57;4.25;;;;;;;;;;5000811;28;20120;-60
2023/12/10 08:48:05;;;;;;;5.07;4.32;;;;;;;;;;5016224;28;20480;-59
2023/12/10 08:50:31;;;;;;;5.03;4.00;;;;;;;;;;4980084;28;20092;-58
2023/12/10 08:52:56;;;;;;;5.18;4.10;;;;;;;;;;4997079;28;20040;-59
2023/12/10 08:55:21;;;;;;;5.75;3.65;;;;;;;;;;4995336;28;20466;-59
2023/12/10 08:57:47;;;;;;;4.75;3.90;;;;;;;;;;4982766;28;20151;-59
2023/12/10 09:00:12;;;;;;;5.57;4.03;;;;;;;;;;4980982;28;20503;-60
2023/12/10 09:02:38;;;;;;;5.63;4.07;;;;;;;;;;4981281;28;20412;-58
2023/12/10 09:05:03;;;;;;;6.03;3.97;;;;;;;;;;4997388;28;20065;-59
2023/12/10 09:07:29;;;;;;;4.60;3.90;;;;;;;;;;5019256;28;20037;-59
2023/12/10 09:09:59;;;;;;;5.00;4.10;;;;;;;;;;4996610;28;20041;-59
2023/12/10 09:12:24;;;;;;;5.10;3.88;;;;;;;;;;5001599;28;20045;-59
2023/12/10 09:14:50;;;;;;;5.32;4.10;;;;;;;;;;5018619;28;20103;-60
2023/12/10 09:17:15;;;;;;;5.20;4.18;;;;;;;;;;5000812;28;20056;-59
2023/12/10 09:19:40;;;;;;;4.70;3.88;;;;;;;;;;5001322;28;20049;-59
2023/12/10 09:22:06;;;;;;;5.35;4.03;;;;;;;;;;4980637;28;20142;-59
2023/12/10 09:24:32;;;;;;;5.13;4.03;;;;;;;;;;5001118;28;20128;-59
2023/12/10 09:26:58;;;;;;;6.03;4.40;;;;;;;;;;4982176;28;20041;-59
2023/12/10 09:29:23;;;;;;;4.75;3.95;;;;;;;;;;4998732;28;20049;-60
2023/12/10 09:31:49;;;;;;;5.75;3.92;;;;;;;;;;5014918;28;20049;-60
2023/12/10 09:34:14;;;;;;;6.05;4.22;;;;;;;;;;4998882;28;20669;-59
2023/12/10 09:36:39;;;;;;;4.90;4.30;;;;;;;;;;5000116;28;20039;-60
2023/12/10 09:39:05;;;;;;;6.00;4.13;;;;;;;;;;5001833;28;20758;-61
2023/12/10 09:41:31;;;;;;;5.97;4.45;;;;;;;;;;5014814;28;20120;-66
2023/12/10 09:43:56;;;;;;;6.32;4.00;;;;;;;;;;4994175;28;20042;-60
2023/12/10 09:46:22;;;;;;;6.45;3.88;;;;;;;;;;4998663;28;20042;-60
2023/12/10 09:48:47;;;;;;;5.32;4.18;;;;;;;;;;4979943;28;20523;-60
2023/12/10 09:51:12;;;;;;;6.15;4.25;;;;;;;;;;4983344;28;20123;-60
2023/12/10 09:53:38;;;;;;;5.35;4.10;;;;;;;;;;4999438;28;20037;-59
2023/12/10 09:56:03;;;;;;;6.10;4.00;;;;;;;;;;4996564;28;20467;-60
2023/12/10 09:58:28;;;;;;;5.63;3.92;;;;;;;;;;4998906;28;20036;-61
2023/12/10 10:00:54;;;;;;;6.78;4.30;;;;;;;;;;5015794;28;20099;-59
2023/12/10 10:03:20;;;;;;;6.07;3.95;;;;;;;;;;4998290;28;20116;-59
2023/12/10 10:05:46;;;;;;;5.43;4.28;;;;;;;;;;4993459;28;20095;-59
2023/12/10 10:08:11;;;;;;;6.75;4.32;;;;;;;;;;4982319;28;20471;-60
2023/12/10 10:10:37;;;;;;;7.43;5.80;;;;;;;;;;4996608;28;20146;-60
2023/12/10 10:13:05;;;;;;;5.40;4.30;;;;;;;;;;4996571;28;20037;-59
2023/12/10 10:15:31;;;;;;;4.57;3.75;;;;;;;;;;4995112;28;20041;-59
2023/12/10 10:17:56;;;;;;;5.38;4.30;;;;;;;;;;4981952;28;20041;-59
2023/12/10 10:20:22;;;;;;;5.63;4.43;;;;;;;;;;4998555;28;20042;-59
2023/12/10 10:22:48;;;;;;;5.00;4.00;;;;;;;;;;4981951;28;20919;-60
2023/12/10 10:25:13;;;;;;;5.43;4.03;;;;;;;;;;5017727;28;20048;-60
2023/12/10 10:27:39;;;;;;;5.75;4.47;;;;;;;;;;4995229;28;21698;-60
2023/12/10 10:30:04;;;;;;;5.47;3.97;;;;;;;;;;5014335;28;20503;-60
2023/12/10 10:32:30;;;;;;;5.07;4.15;;;;;;;;;;4994826;28;20502;-60
2023/12/10 10:34:55;;;;;;;5.93;4.38;;;;;;;;;;5016809;28;20038;-60
2023/12/10 10:37:20;;;;;;;6.90;4.57;;;;;;;;;;4980208;28;20045;-61
2023/12/10 10:39:48;;;;;;;5.88;3.97;;;;;;;;;;4995862;28;20548;-59
2023/12/10 10:42:13;;;;;;;5.25;4.28;;;;;;;;;;4994977;28;20049;-59
2023/12/10 10:44:39;;;;;;;6.15;4.38;;;;;;;;;;4997666;28;20045;-59
2023/12/10 10:47:04;;;;;;;6.55;4.70;;;;;;;;;;5000380;28;20518;-59
2023/12/10 10:49:30;;;;;;;7.82;4.57;;;;;;;;;;5016143;28;20523;-59
2023/12/10 10:51:56;;;;;;;7.32;5.40;;;;;;;;;;5000637;28;20045;-59
2023/12/10 10:54:21;;;;;;;27.38;19.60;;;;;;;;;;5016416;28;20770;-59
2023/12/10 10:56:47;;;;;;;62.10;47.42;;;;;;;;;;4979093;28;20030;-59
2023/12/10 10:59:31;;;;;;;75.22;61.60;;;;;;;;;;4993875;28;20034;-59
2023/12/10 11:02:00;;;;;;;80.47;62.08;;;;;;;;;;5017464;28;20395;-59
2023/12/10 11:04:32;;;;;;;72.90;57.88;;;;;;;;;;5016524;28;20060;-59
2023/12/10 11:06:57;;;;;;;63.60;52.70;;;;;;;;;;5019533;28;20025;-59
2023/12/10 11:09:25;;;;;;;55.10;40.53;;;;;;;;;;4994578;28;20045;-59
2023/12/10 11:11:50;;;;;;;60.95;48.20;;;;;;;;;;5018105;28;20037;-58
2023/12/10 11:14:20;;;;;;;51.40;42.38;;;;;;;;;;4999932;28;20139;-60
2023/12/10 11:16:59;;;;;;;50.95;41.53;;;;;;;;;;5016051;28;20073;-59
2023/12/10 11:19:25;;;;;;;47.90;38.75;;;;;;;;;;5015087;28;20033;-60
2023/12/10 11:21:50;;;;;;;44.97;35.92;;;;;;;;;;5017463;28;20032;-60
2023/12/10 11:24:16;;;;;;;45.15;35.47;;;;;;;;;;5000113;28;20064;-60
2023/12/10 11:26:41;;;;;;;42.95;34.15;;;;;;;;;;5016749;28;20429;-59
2023/12/10 11:29:07;;;;;;;38.85;32.13;;;;;;;;;;4997208;28;20163;-59
2023/12/10 11:31:32;;;;;;;37.75;30.90;;;;;;;;;;5018091;28;20037;-61
2023/12/10 11:33:58;;;;;;;37.67;30.95;;;;;;;;;;5016972;28;20041;-59
2023/12/10 11:36:23;;;;;;;34.95;28.38;;;;;;;;;;5016301;28;20041;-58
2023/12/10 11:38:49;;;;;;;36.60;28.33;;;;;;;;;;5015821;28;20372;-57
2023/12/10 11:41:14;;;;;;;32.67;27.05;;;;;;;;;;5021731;28;20128;-59
2023/12/10 11:43:44;;;;;;;33.33;25.63;;;;;;;;;;5003179;28;20439;-58
2023/12/10 11:46:09;;;;;;;32.80;25.88;;;;;;;;;;5021283;28;20614;-58
2023/12/10 11:48:34;;;;;;;32.88;26.75;;;;;;;;;;5019140;28;20120;-57
2023/12/10 11:51:00;;;;;;;27.70;24.05;;;;;;;;;;5020406;28;20824;-58
2023/12/10 11:53:25;;;;;;;28.13;23.58;;;;;;;;;;5020384;28;20044;-57
2023/12/10 11:55:52;;;;;;;26.98;22.05;;;;;;;;;;5002613;28;20041;-57
2023/12/10 11:58:27;;;;;;;27.08;20.83;;;;;;;;;;5020922;28;20034;-59
2023/12/10 12:00:58;;;;;;;26.83;21.25;;;;;;;;;;5018093;28;20042;-58
2023/12/10 12:03:24;;;;;;;24.13;20.08;;;;;;;;;;5021625;28;20064;-58
2023/12/10 12:05:52;;;;;;;26.15;19.95;;;;;;;;;;5021881;28;20049;-59
2023/12/10 12:08:18;;;;;;;24.77;19.23;;;;;;;;;;5020483;28;20165;-59
2023/12/10 12:10:44;;;;;;;24.02;18.73;;;;;;;;;;5022758;28;20128;-58
2023/12/10 12:13:09;;;;;;;22.15;17.58;;;;;;;;;;5022733;28;20036;-57
2023/12/10 12:15:34;;;;;;;23.23;17.65;;;;;;;;;;5016910;28;20500;-58
2023/12/10 12:18:00;;;;;;;23.58;18.10;;;;;;;;;;5000531;28;20114;-58
2023/12/10 12:20:26;;;;;;;23.08;17.20;;;;;;;;;;5036504;28;20042;-60
2023/12/10 12:22:51;;;;;;;22.88;16.70;;;;;;;;;;4984577;28;20037;-60
2023/12/10 12:25:16;;;;;;;20.02;15.95;;;;;;;;;;5000300;28;20034;-58
2023/12/10 12:27:43;;;;;;;17.85;14.88;;;;;;;;;;4995965;28;20049;-59
2023/12/10 12:30:08;;;;;;;18.00;14.75;;;;;;;;;;4985617;28;20045;-58
2023/12/10 12:32:33;;;;;;;19.65;15.15;;;;;;;;;;5001671;28;20058;-58
2023/12/10 12:34:59;;;;;;;15.77;14.05;;;;;;;;;;4983066;28;20210;-58
2023/12/10 12:37:24;;;;;;;16.25;13.82;;;;;;;;;;5003083;28;20504;-58
2023/12/10 12:39:51;;;;;;;16.52;12.93;;;;;;;;;;5002012;28;20209;-59
2023/12/10 12:42:16;;;;;;;17.27;13.75;;;;;;;;;;5015303;28;20030;-60
2023/12/10 12:44:42;;;;;;;15.50;12.25;;;;;;;;;;5004157;28;20099;-59
2023/12/10 12:47:07;;;;;;;17.55;12.77;;;;;;;;;;5000509;28;20037;-59
2023/12/10 12:49:33;;;;;;;15.45;12.40;;;;;;;;;;4999815;28;20075;-59
2023/12/10 12:51:58;;;;;;;14.75;11.85;;;;;;;;;;4982086;28;20042;-59
2023/12/10 12:54:24;;;;;;;14.18;11.68;;;;;;;;;;4984063;28;20559;-59
2023/12/10 12:56:49;;;;;;;14.45;11.48;;;;;;;;;;4997772;28;20046;-58
2023/12/10 12:59:15;;;;;;;13.60;11.02;;;;;;;;;;5001353;28;20143;-59
2023/12/10 13:01:40;;;;;;;12.38;10.35;;;;;;;;;;4999703;28;20663;-59
2023/12/10 13:04:06;;;;;;;13.07;10.68;;;;;;;;;;5018821;28;20084;-58
2023/12/10 13:06:31;;;;;;;14.23;10.30;;;;;;;;;;5017640;28;20527;-58
2023/12/10 13:08:56;;;;;;;12.63;9.98;;;;;;;;;;5000024;28;20053;-58
2023/12/10 13:11:22;;;;;;;14.00;9.68;;;;;;;;;;4980107;28;20116;-58
2023/12/10 13:13:47;;;;;;;12.63;10.40;;;;;;;;;;4994951;28;20099;-57
2023/12/10 13:16:13;;;;;;;12.55;9.38;;;;;;;;;;4998708;28;20660;-58
2023/12/10 13:18:38;;;;;;;13.35;9.15;;;;;;;;;;4995099;28;20047;-58
2023/12/10 13:21:04;;;;;;;11.13;9.38;;;;;;;;;;5016492;28;20547;-58
2023/12/10 13:23:29;;;;;;;11.55;9.20;;;;;;;;;;5000210;28;21008;-59
2023/12/10 13:25:55;;;;;;;10.25;8.65;;;;;;;;;;4999004;28;20455;-58
2023/12/10 13:28:21;;;;;;;12.07;9.35;;;;;;;;;;4978878;28;20057;-58
2023/12/10 13:30:47;;;;;;;12.70;9.43;;;;;;;;;;4980754;28;20106;-58
2023/12/10 13:33:12;;;;;;;12.45;8.80;;;;;;;;;;5000870;28;20125;-58
2023/12/10 13:35:37;;;;;;;11.20;8.73;;;;;;;;;;4995432;28;20112;-58
2023/12/10 13:38:02;;;;;;;10.43;8.00;;;;;;;;;;5019096;28;20061;-60
2023/12/10 13:40:28;;;;;;;10.23;8.05;;;;;;;;;;5018448;28;20039;-59
2023/12/10 13:42:53;;;;;;;10.77;8.70;;;;;;;;;;5018033;28;20046;-58
2023/12/10 13:45:18;;;;;;;9.38;7.70;;;;;;;;;;5017719;28;20848;-56
2023/12/10 13:47:44;;;;;;;9.63;7.78;;;;;;;;;;5014882;28;21587;-59
2023/12/10 13:50:09;;;;;;;11.05;7.85;;;;;;;;;;5018928;28;20041;-58
2023/12/10 13:52:35;;;;;;;8.88;7.55;;;;;;;;;;4994610;28;20056;-59
2023/12/10 13:55:00;;;;;;;9.60;7.82;;;;;;;;;;5017849;28;20053;-58
2023/12/10 13:57:27;;;;;;;9.52;7.45;;;;;;;;;;5019695;28;20045;-58
2023/12/10 13:59:53;;;;;;;9.70;7.53;;;;;;;;;;5017980;28;20691;-58
2023/12/10 14:02:18;;;;;;;9.00;7.22;;;;;;;;;;5015758;28;20049;-59
2023/12/10 14:04:43;;;;;;;8.70;7.43;;;;;;;;;;5016777;28;20041;-59
2023/12/10 14:07:09;;;;;;;8.20;6.70;;;;;;;;;;5001374;28;20075;-57
2023/12/10 14:09:34;;;;;;;10.07;6.78;;;;;;;;;;5006861;28;20045;-59
2023/12/10 14:12:00;;;;;;;9.30;7.00;;;;;;;;;;5020829;28;20492;-57
2023/12/10 14:14:25;;;;;;;8.48;6.82;;;;;;;;;;5021358;28;20045;-59
2023/12/10 14:16:52;;;;;;;9.40;7.07;;;;;;;;;;5019862;28;20076;-57
2023/12/10 14:19:17;;;;;;;8.20;6.88;;;;;;;;;;5017993;28;20037;-59
2023/12/10 14:21:42;;;;;;;9.88;6.38;;;;;;;;;;5018764;28;20034;-59
2023/12/10 14:24:08;;;;;;;9.13;7.00;;;;;;;;;;4997457;28;20106;-60
2023/12/10 14:26:33;;;;;;;8.70;6.50;;;;;;;;;;5017751;28;20579;-58
2023/12/10 14:28:59;;;;;;;8.00;6.38;;;;;;;;;;4994920;28;20048;-59